NCAR-RAP Real-Time Weather Data

Output produced by METARs form (08 May 2021  02:19 UTC)
found at http://weather.rap.ucar.edu/surface/
 
KGTF 080153Z 22013KT 10SM -RA FEW020 OVC048 08/07 A2987 RMK AO2 SLP117 P0006 T00830067 $
KGTF 080053Z 19009KT 4SM RA BR SCT025 BKN033 OVC046 09/08 A2984 RMK AO2 SLP110 P0009 T00940083 $
KGTF 072353Z 19007KT 7SM -RA FEW044 OVC049 10/08 A2983 RMK AO2 SLP105 P0008 60016 T01000083 10183 20094 53004 $
KGTF 072253Z 23004KT 7SM -RA OVC055 10/09 A2981 RMK AO2 SLP101 P0007 T01000089 $
KGTF 072153Z 25009KT 5SM -RA BR OVC055 11/09 A2982 RMK AO2 SLP100 P0001 T01110094 $
KGTF 072053Z 28011KT 10SM -RA FEW060 OVC080 14/08 A2982 RMK AO2 RAB39 SLP086 P0000 60000 T01390083 53002 $
KGTF 071953Z 26005KT 10SM OVC080 14/07 A2981 RMK AO2 RAE06 SLP088 P0000 T01440072 $
KGTF 071853Z 28008KT 10SM -RA OVC075 14/08 A2982 RMK AO2 RAB44 SLP091 P0000 T01440083 $
KGTF 071753Z 29013KT 10SM SCT080 BKN100 17/07 A2981 RMK AO2 SLP084 60000 T01670067 10167 20083 58004 $
KGTF 071653Z 27008KT 10SM FEW042 BKN080 OVC095 14/05 A2983 RMK AO2 RAB04E50 SLP092 P0000 T01440050 $
KGTF 071553Z 25007KT 10SM BKN090 OVC120 13/05 A2983 RMK AO2 SLP092 T01280050 $
KGTF 071453Z 21003KT 10SM FEW070 BKN090 OVC110 12/04 A2983 RMK AO2 SLP089 T01220039 53002 $
KGTF 071353Z 00000KT 10SM BKN110 11/04 A2983 RMK AO2 SLP087 T01110039 $
KGTF 071253Z 29005KT 10SM FEW120 09/04 A2981 RMK AO2 SLP081 T00940039 $